Time;durP1;ratioP1;P1;durP2;ratioP2;P2;SDS_P1;SDS_P2;PMS_P1;PMS_P2;Temp;Humidity;BMP_temperature;BMP_pressure;BME280_temperature;BME280_humidity;BME280_pressure;Samples;Min_cycle;Max_cycle;Signal;HPM_P1;HPM_P2
2022/05/24 00:00:28;;;;;;;15.10;9.68;;;21.90;98.60;;;;;;5010792;28;20044;-78
2022/05/24 00:02:54;;;;;;;16.42;9.00;;;21.90;98.70;;;;;;5001409;28;20037;-78
2022/05/24 00:05:21;;;;;;;13.35;9.48;;;21.80;98.70;;;;;;5007521;28;20460;-77
2022/05/24 00:07:47;;;;;;;17.98;9.43;;;21.90;98.60;;;;;;5010855;28;20042;-77
2022/05/24 00:10:16;;;;;;;14.65;9.05;;;21.80;98.50;;;;;;5010912;28;20037;-77
2022/05/24 00:12:42;;;;;;;12.73;8.07;;;21.70;98.80;;;;;;5005062;28;20080;-77
2022/05/24 00:15:23;;;;;;;12.00;8.95;;;21.60;98.90;;;;;;5006402;28;20436;-78
2022/05/24 00:18:11;;;;;;;14.25;9.18;;;21.60;99.00;;;;;;5001700;28;20081;-77
2022/05/24 00:20:49;;;;;;;14.40;8.88;;;21.60;98.90;;;;;;5001952;28;20037;-78
2022/05/24 00:23:16;;;;;;;12.23;8.35;;;21.60;99.00;;;;;;5021594;28;20465;-77
2022/05/24 00:25:46;;;;;;;15.10;8.32;;;21.60;98.90;;;;;;5016454;28;20062;-78
2022/05/24 00:28:14;;;;;;;13.88;8.52;;;21.70;98.80;;;;;;5010603;28;20030;-78
2022/05/24 00:30:41;;;;;;;12.85;8.20;;;21.70;98.60;;;;;;5009357;28;20401;-78
2022/05/24 00:33:07;;;;;;;16.48;8.82;;;21.60;98.60;;;;;;5005858;28;20101;-78
2022/05/24 00:35:34;;;;;;;12.40;9.07;;;21.60;98.60;;;;;;5004004;28;20029;-78
2022/05/24 00:37:59;;;;;;;14.32;8.02;;;21.50;98.60;;;;;;5005083;28;20029;-77
2022/05/24 00:40:25;;;;;;;14.25;8.48;;;21.50;98.60;;;;;;5009009;28;20388;-77
2022/05/24 00:42:51;;;;;;;13.75;8.15;;;21.50;98.60;;;;;;5000889;28;20077;-77
2022/05/24 00:45:29;;;;;;;11.57;7.93;;;21.40;98.60;;;;;;5012115;28;20040;-77
2022/05/24 00:48:07;;;;;;;12.70;7.95;;;21.40;98.40;;;;;;5002365;28;20042;-77
2022/05/24 00:50:39;;;;;;;11.45;6.95;;;21.30;98.50;;;;;;5009647;28;20041;-77
2022/05/24 00:53:16;;;;;;;13.80;8.25;;;21.30;98.40;;;;;;5010273;28;20040;-78
2022/05/24 00:55:52;;;;;;;9.93;7.40;;;21.30;98.40;;;;;;5006137;28;20037;-77
2022/05/24 00:58:27;;;;;;;10.32;7.25;;;21.30;98.40;;;;;;5008451;28;20053;-77
2022/05/24 01:00:53;;;;;;;13.55;7.75;;;21.30;98.40;;;;;;5005975;28;20101;-77
2022/05/24 01:03:19;;;;;;;14.82;7.93;;;21.30;98.20;;;;;;5006004;28;20117;-78
2022/05/24 01:05:45;;;;;;;10.25;7.20;;;21.30;98.30;;;;;;5005698;28;20140;-78
2022/05/24 01:08:12;;;;;;;10.90;6.82;;;21.20;98.40;;;;;;4998883;28;20515;-77
2022/05/24 01:10:43;;;;;;;15.27;7.38;;;21.20;98.40;;;;;;4999100;28;20038;-77
2022/05/24 01:13:16;;;;;;;12.90;6.90;;;21.20;98.30;;;;;;5004064;28;20026;-77
2022/05/24 01:15:44;;;;;;;14.68;6.88;;;21.20;98.20;;;;;;5007386;28;20066;-77
2022/05/24 01:18:11;;;;;;;11.45;7.15;;;21.20;98.10;;;;;;4998955;28;20110;-77
2022/05/24 01:20:38;;;;;;;8.80;6.68;;;21.20;98.00;;;;;;5002568;28;20034;-77
2022/05/24 01:23:41;;;;;;;9.90;6.20;;;21.20;97.90;;;;;;5007221;28;20041;-77
2022/05/24 01:26:34;;;;;;;8.90;6.57;;;21.10;97.80;;;;;;5003531;28;20037;-77
2022/05/24 01:29:05;;;;;;;9.90;6.38;;;21.20;97.60;;;;;;5001075;28;20081;-77
2022/05/24 01:36:09;;;;;;;8.50;5.57;;;21.10;97.80;;;;;;5009255;28;20033;-77
2022/05/24 01:37:02;;;;;;;11.32;6.13;;;21.20;97.30;;;;;;5007257;28;20153;-77
2022/05/24 01:39:28;;;;;;;8.43;5.47;;;21.10;97.30;;;;;;4999120;28;20030;-77
2022/05/24 01:41:54;;;;;;;11.80;5.78;;;21.10;97.40;;;;;;5011365;28;20041;-77
2022/05/24 01:44:46;;;;;;;12.52;6.10;;;21.20;97.10;;;;;;5014760;28;20493;-77
2022/05/24 01:47:14;;;;;;;10.48;5.00;;;21.10;97.10;;;;;;5010255;28;20686;-77
2022/05/24 01:49:45;;;;;;;8.57;5.47;;;21.00;97.10;;;;;;5009348;28;20065;-77
2022/05/24 01:52:26;;;;;;;7.30;5.78;;;20.90;97.20;;;;;;5008655;28;20042;-77
2022/05/24 01:55:07;;;;;;;10.30;6.07;;;21.00;97.20;;;;;;5007151;28;20030;-77
2022/05/24 01:57:36;;;;;;;10.10;5.25;;;21.00;97.10;;;;;;5005567;28;20464;-77
2022/05/24 02:00:05;;;;;;;9.07;5.15;;;21.00;97.00;;;;;;5012576;28;20045;-77
2022/05/24 02:02:31;;;;;;;9.02;5.28;;;21.00;97.10;;;;;;5001925;28;20038;-77
2022/05/24 02:04:57;;;;;;;7.85;5.40;;;21.00;97.20;;;;;;5011897;28;20046;-77
2022/05/24 02:07:24;;;;;;;15.15;5.63;;;21.10;97.00;;;;;;5008773;28;20181;-77
2022/05/24 02:09:54;;;;;;;10.65;5.70;;;21.20;97.00;;;;;;5006483;28;20393;-77
2022/05/24 02:12:30;;;;;;;10.85;4.82;;;21.20;97.10;;;;;;5008537;28;20037;-77
2022/05/24 02:15:12;;;;;;;10.75;5.75;;;21.20;96.70;;;;;;5025734;28;20034;-77
2022/05/24 02:18:07;;;;;;;10.68;5.00;;;21.10;97.00;;;;;;5023127;28;20096;-77
2022/05/24 02:20:42;;;;;;;10.20;5.80;;;21.00;97.20;;;;;;5004424;28;20038;-78
2022/05/24 02:23:10;;;;;;;9.15;5.70;;;20.70;97.50;;;;;;5006203;28;20400;-77
2022/05/24 02:25:48;;;;;;;8.77;5.45;;;21.20;96.60;;;;;;5013553;28;20026;-77
2022/05/24 02:28:15;;;;;;;11.88;5.53;;;21.30;96.30;;;;;;5008172;28;20084;-77
2022/05/24 02:30:46;;;;;;;9.68;6.18;;;21.30;96.40;;;;;;5006627;28;20033;-77
2022/05/24 02:33:11;;;;;;;11.05;4.80;;;21.10;96.70;;;;;;5016481;28;20553;-77
2022/05/24 02:35:37;;;;;;;9.88;5.55;;;21.00;96.60;;;;;;5009201;28;20042;-77
2022/05/24 02:38:04;;;;;;;9.82;6.40;;;21.00;96.60;;;;;;5003524;28;20388;-77
2022/05/24 02:43:14;;;;;;;9.70;5.93;;;21.00;96.60;;;;;;5009647;28;20045;-77
2022/05/24 02:45:40;;;;;;;11.45;5.85;;;21.00;96.80;;;;;;5012656;28;20397;-77
2022/05/24 02:48:07;;;;;;;10.50;5.10;;;20.90;96.90;;;;;;5013349;28;20124;-77
2022/05/24 02:50:32;;;;;;;9.60;5.10;;;20.50;97.60;;;;;;5004419;28;20033;-77
2022/05/24 02:52:58;;;;;;;9.98;5.60;;;20.50;97.60;;;;;;5004779;28;20038;-77
2022/05/24 02:55:24;;;;;;;13.88;6.28;;;20.50;97.50;;;;;;5012759;28;20034;-77
2022/05/24 02:57:49;;;;;;;7.28;4.97;;;20.40;97.60;;;;;;5006552;28;20038;-77
2022/05/24 03:00:19;;;;;;;10.82;5.35;;;20.30;97.50;;;;;;5004065;28;20027;-76
2022/05/24 03:02:45;;;;;;;9.07;5.35;;;20.10;97.80;;;;;;5005734;28;20042;-75
2022/05/24 03:05:12;;;;;;;8.90;5.10;;;20.20;97.90;;;;;;5008733;28;20099;-75
2022/05/24 03:10:24;;;;;;;11.65;5.22;;;20.10;97.70;;;;;;4998345;28;20057;-76
2022/05/24 03:15:36;;;;;;;10.05;5.63;;;20.00;97.70;;;;;;4984280;28;20049;-76
2022/05/24 03:18:02;;;;;;;8.73;4.90;;;20.10;97.60;;;;;;4975037;28;20038;-76
2022/05/24 03:20:28;;;;;;;7.35;5.03;;;20.10;97.50;;;;;;4991816;28;20155;-76
2022/05/24 03:22:53;;;;;;;13.10;5.75;;;20.10;97.50;;;;;;4998442;28;20038;-76
2022/05/24 03:25:19;;;;;;;11.90;5.35;;;20.10;97.50;;;;;;5007842;28;20553;-76
2022/05/24 03:27:48;;;;;;;18.67;6.63;;;19.90;97.70;;;;;;4994655;28;20448;-76
2022/05/24 03:30:14;;;;;;;8.30;5.88;;;19.90;97.80;;;;;;5006416;28;20026;-76
2022/05/24 03:32:40;;;;;;;11.88;5.80;;;19.90;97.80;;;;;;4997420;28;20081;-76
2022/05/24 03:35:08;;;;;;;9.85;6.30;;;19.80;97.90;;;;;;5009712;28;20080;-76
2022/05/24 03:37:35;;;;;;;9.73;5.40;;;19.90;97.90;;;;;;5004694;28;20092;-76
2022/05/24 03:40:01;;;;;;;11.43;6.45;;;20.00;97.90;;;;;;5000421;28;20092;-76
2022/05/24 03:42:26;;;;;;;8.93;5.53;;;20.00;98.00;;;;;;5004107;28;20030;-77
2022/05/24 03:44:52;;;;;;;10.70;6.07;;;19.80;98.30;;;;;;5002097;28;20428;-76
2022/05/24 03:47:17;;;;;;;11.40;5.47;;;19.80;98.30;;;;;;5016457;28;20068;-76
2022/05/24 03:49:43;;;;;;;9.10;5.78;;;19.80;98.40;;;;;;4997222;28;20049;-76
2022/05/24 03:52:09;;;;;;;12.55;6.00;;;19.80;98.40;;;;;;5008276;28;20125;-76
2022/05/24 03:54:35;;;;;;;12.95;6.18;;;19.90;98.40;;;;;;5004022;28;20042;-76
2022/05/24 03:59:45;;;;;;;7.95;5.57;;;19.90;98.40;;;;;;5000457;28;20072;-76
2022/05/24 04:02:10;;;;;;;7.90;5.82;;;19.90;98.20;;;;;;4999693;28;20469;-76
2022/05/24 04:04:36;;;;;;;12.35;6.35;;;20.00;98.10;;;;;;4992714;28;20046;-76
2022/05/24 04:07:02;;;;;;;13.43;7.13;;;20.00;98.30;;;;;;4997592;28;20038;-76
2022/05/24 04:09:27;;;;;;;11.27;6.32;;;20.10;98.40;;;;;;5004380;28;20905;-75
2022/05/24 04:11:54;;;;;;;8.98;6.22;;;20.10;98.50;;;;;;4996117;28;20037;-76
2022/05/24 04:14:20;;;;;;;16.30;6.45;;;20.20;98.40;;;;;;4997831;28;20404;-76
2022/05/24 04:16:45;;;;;;;9.55;6.13;;;20.10;98.50;;;;;;4994300;28;20026;-76
2022/05/24 04:19:11;;;;;;;11.48;5.95;;;20.00;98.40;;;;;;4993351;28;20030;-76
2022/05/24 04:21:36;;;;;;;14.18;6.25;;;20.10;98.60;;;;;;4995468;28;20045;-76
2022/05/24 04:24:02;;;;;;;12.23;6.57;;;20.00;98.90;;;;;;4998021;28;20034;-76
2022/05/24 04:26:28;;;;;;;14.35;6.60;;;20.00;98.90;;;;;;5000497;28;20037;-76
2022/05/24 04:28:54;;;;;;;11.40;6.30;;;20.00;98.80;;;;;;4998925;28;20030;-76
2022/05/24 04:31:19;;;;;;;13.40;6.88;;;19.90;99.20;;;;;;4994674;28;20096;-76
2022/05/24 04:33:45;;;;;;;15.75;6.60;;;20.00;99.00;;;;;;4990691;28;20038;-76
2022/05/24 04:36:11;;;;;;;10.73;6.60;;;20.10;99.30;;;;;;4999032;28;20025;-76
2022/05/24 04:38:36;;;;;;;11.73;5.53;;;19.90;99.40;;;;;;4999350;28;20531;-76
2022/05/24 04:43:47;;;;;;;9.38;6.50;;;20.00;98.70;;;;;;4998298;28;20506;-76
2022/05/24 04:46:13;;;;;;;11.23;5.95;;;19.90;99.30;;;;;;4996960;28;20050;-76
2022/05/24 04:48:39;;;;;;;9.05;6.63;;;19.90;99.40;;;;;;4997338;28;20037;-76
2022/05/24 04:51:05;;;;;;;14.63;7.50;;;19.80;99.90;;;;;;4989922;28;20501;-76
2022/05/24 04:53:31;;;;;;;12.50;7.55;;;19.60;99.90;;;;;;4989812;28;20116;-76
2022/05/24 04:55:56;;;;;;;12.38;7.10;;;19.40;99.90;;;;;;4993975;28;20045;-76
2022/05/24 04:58:22;;;;;;;9.70;7.00;;;19.50;99.90;;;;;;5003576;28;20029;-76
2022/05/24 05:00:49;;;;;;;15.25;8.18;;;19.40;99.90;;;;;;5000217;28;20508;-76
2022/05/24 05:03:19;;;;;;;11.32;6.50;;;19.40;99.90;;;;;;5001589;28;20041;-76
2022/05/24 05:05:46;;;;;;;11.38;6.97;;;19.30;99.90;;;;;;4989116;28;20051;-76
2022/05/24 05:08:13;;;;;;;12.80;7.15;;;19.40;99.90;;;;;;4995005;28;20037;-76
2022/05/24 05:10:39;;;;;;;10.07;5.90;;;19.50;99.90;;;;;;4991265;28;20042;-76
2022/05/24 05:13:05;;;;;;;8.90;6.07;;;19.70;99.90;;;;;;4991451;28;20641;-76
2022/05/24 05:15:34;;;;;;;12.40;6.28;;;19.70;99.50;;;;;;4995321;28;20570;-75
2022/05/24 05:18:12;;;;;;;12.40;6.22;;;19.80;99.50;;;;;;5004041;28;20080;-75
2022/05/24 05:20:40;;;;;;;12.80;6.82;;;19.80;99.50;;;;;;5003370;28;20026;-77
2022/05/24 05:23:11;;;;;;;12.85;7.13;;;19.80;99.70;;;;;;5004519;28;20393;-74
2022/05/24 05:25:37;;;;;;;9.93;7.13;;;19.80;99.90;;;;;;5005457;28;20037;-74
2022/05/24 05:28:03;;;;;;;13.32;7.45;;;19.80;99.90;;;;;;4999582;28;20473;-76
2022/05/24 05:33:14;;;;;;;13.60;6.93;;;19.80;99.90;;;;;;4991942;28;20087;-76
2022/05/24 05:35:43;;;;;;;13.65;6.88;;;19.70;99.90;;;;;;5004733;28;20557;-76
2022/05/24 05:38:09;;;;;;;19.30;8.63;;;19.40;99.90;;;;;;5004289;28;20030;-76
2022/05/24 05:40:35;;;;;;;18.05;7.38;;;19.30;99.90;;;;;;5004403;28;20531;-76
2022/05/24 05:43:00;;;;;;;14.32;7.75;;;19.30;99.90;;;;;;4999404;28;20594;-76
2022/05/24 05:45:26;;;;;;;10.43;6.78;;;19.40;99.90;;;;;;5002190;28;20042;-76
2022/05/24 05:47:53;;;;;;;9.80;7.07;;;19.10;99.90;;;;;;5004407;28;20120;-76
2022/05/24 05:50:20;;;;;;;11.82;7.18;;;19.20;99.90;;;;;;5004281;28;20034;-76
2022/05/24 05:52:46;;;;;;;12.23;7.65;;;19.40;99.90;;;;;;5003238;28;20377;-76
2022/05/24 05:55:12;;;;;;;12.25;8.30;;;19.50;99.90;;;;;;5004558;28;20034;-76
2022/05/24 05:57:39;;;;;;;12.18;8.10;;;19.60;99.90;;;;;;5004860;28;20594;-76
2022/05/24 06:00:08;;;;;;;15.63;7.93;;;19.80;99.90;;;;;;5000673;28;20035;-77
2022/05/24 06:02:34;;;;;;;13.70;7.95;;;19.90;99.90;;;;;;5003333;28;21003;-76
2022/05/24 06:05:00;;;;;;;12.23;8.13;;;20.00;99.90;;;;;;5003709;28;20053;-76
2022/05/24 06:07:26;;;;;;;10.95;6.72;;;20.10;99.90;;;;;;5004360;28;20029;-76
2022/05/24 06:09:52;;;;;;;13.50;8.60;;;20.20;99.90;;;;;;4995737;28;20061;-76
2022/05/24 06:12:17;;;;;;;13.00;8.40;;;20.30;99.90;;;;;;5002899;28;20034;-76
2022/05/24 06:14:43;;;;;;;15.40;9.23;;;20.10;99.90;;;;;;5001369;28;20038;-76
2022/05/24 06:17:10;;;;;;;11.85;8.07;;;20.10;99.90;;;;;;5000750;28;20061;-76
2022/05/24 06:19:36;;;;;;;13.45;8.05;;;20.10;99.90;;;;;;4997775;28;20022;-76
2022/05/24 06:22:02;;;;;;;12.63;9.35;;;20.10;99.90;;;;;;4987890;28;20030;-76
2022/05/24 06:24:28;;;;;;;14.50;8.98;;;20.10;99.90;;;;;;4982183;28;20045;-76
2022/05/24 06:26:54;;;;;;;12.75;8.60;;;20.10;99.90;;;;;;5007587;28;20034;-76
2022/05/24 06:29:19;;;;;;;16.08;8.77;;;20.20;99.90;;;;;;4995842;28;20524;-77
2022/05/24 06:31:45;;;;;;;14.00;9.20;;;20.20;99.90;;;;;;5007509;28;20034;-76
2022/05/24 06:34:14;;;;;;;13.40;8.63;;;20.20;99.90;;;;;;5003807;28;20126;-77
2022/05/24 06:36:39;;;;;;;11.40;8.68;;;20.30;99.90;;;;;;5006035;28;20121;-75
2022/05/24 06:39:05;;;;;;;18.75;9.48;;;20.30;99.90;;;;;;5006099;28;20559;-75
2022/05/24 06:41:31;;;;;;;11.80;8.10;;;20.50;99.90;;;;;;5007230;28;20136;-75
2022/05/24 06:43:57;;;;;;;11.00;8.02;;;20.60;99.90;;;;;;4997049;28;20201;-75
2022/05/24 06:46:23;;;;;;;10.00;6.80;;;20.80;99.90;;;;;;5003822;28;20026;-75
2022/05/24 06:48:50;;;;;;;9.40;7.20;;;20.90;99.80;;;;;;5013991;28;20037;-74
2022/05/24 06:51:18;;;;;;;12.52;8.65;;;21.10;99.20;;;;;;5016159;28;20504;-74
2022/05/24 06:53:46;;;;;;;17.20;7.88;;;21.10;99.60;;;;;;5007803;28;20034;-74
2022/05/24 06:56:12;;;;;;;11.77;7.85;;;21.40;99.80;;;;;;5006070;28;20026;-73
2022/05/24 06:58:38;;;;;;;11.55;7.78;;;21.60;98.80;;;;;;5006980;28;20072;-72
2022/05/24 07:03:51;;;;;;;12.15;7.40;;;21.80;98.40;;;;;;5007349;28;20063;-74
2022/05/24 07:06:17;;;;;;;15.32;8.52;;;21.70;99.00;;;;;;5007320;28;20038;-75
2022/05/24 07:08:44;;;;;;;15.40;7.65;;;21.70;99.00;;;;;;5017252;28;20484;-74
2022/05/24 07:11:11;;;;;;;10.73;8.13;;;21.90;98.50;;;;;;5007169;28;20033;-75
2022/05/24 07:13:39;;;;;;;12.88;8.52;;;22.20;98.30;;;;;;5008629;28;20045;-74
2022/05/24 07:16:06;;;;;;;13.10;7.50;;;22.20;98.00;;;;;;5011953;28;20555;-73
2022/05/24 07:18:32;;;;;;;14.80;7.93;;;22.30;97.90;;;;;;5005888;28;20034;-76
2022/05/24 07:20:58;;;;;;;13.63;7.18;;;22.50;97.80;;;;;;4984692;28;20042;-76
2022/05/24 07:23:26;;;;;;;41.72;10.05;;;22.80;97.20;;;;;;4998859;28;20037;-75
2022/05/24 07:25:54;;;;;;;243.15;24.27;;;23.30;97.00;;;;;;4995990;28;20419;-75
2022/05/24 07:28:22;;;;;;;17.15;7.38;;;23.40;96.30;;;;;;5006297;28;20084;-76
2022/05/24 07:30:48;;;;;;;15.20;7.00;;;23.80;96.40;;;;;;5001732;28;20034;-76
2022/05/24 07:33:16;;;;;;;12.63;7.63;;;24.10;95.50;;;;;;4988431;28;20029;-76
2022/05/24 07:35:42;;;;;;;13.43;6.90;;;24.60;95.20;;;;;;5005701;28;20058;-76
2022/05/24 07:38:09;;;;;;;14.32;6.93;;;24.90;94.60;;;;;;5006278;28;20041;-77
2022/05/24 07:46:10;;;;;;;17.20;6.80;;;25.60;93.00;;;;;;5001464;28;20046;-75
2022/05/24 07:48:36;;;;;;;8.90;6.25;;;25.70;92.70;;;;;;5005677;28;20105;-76
2022/05/24 07:51:03;;;;;;;15.05;6.88;;;26.80;92.40;;;;;;5003460;28;20113;-75
2022/05/24 07:53:29;;;;;;;8.90;5.65;;;26.90;92.10;;;;;;5006237;28;20461;-74
2022/05/24 07:55:55;;;;;;;12.68;6.05;;;26.00;91.80;;;;;;4985915;28;20052;-74
2022/05/24 07:58:21;;;;;;;12.15;5.57;;;25.50;92.70;;;;;;4987012;28;20033;-74
2022/05/24 08:00:48;;;;;;;10.45;6.07;;;25.70;93.20;;;;;;4984373;28;20469;-74
2022/05/24 08:03:15;;;;;;;8.98;5.70;;;25.50;93.10;;;;;;5008582;28;20029;-76
2022/05/24 08:05:41;;;;;;;10.43;6.32;;;25.10;92.80;;;;;;5021136;28;20125;-76
2022/05/24 08:08:08;;;;;;;9.40;6.13;;;25.20;93.50;;;;;;4987016;28;20037;-75
2022/05/24 08:10:36;;;;;;;9.77;6.43;;;25.20;93.80;;;;;;4985049;28;20065;-75
2022/05/24 08:13:08;;;;;;;14.00;6.95;;;25.10;94.20;;;;;;5001532;28;20128;-73
2022/05/24 08:15:34;;;;;;;11.48;6.25;;;24.80;94.40;;;;;;5001389;28;20556;-75
2022/05/24 08:18:00;;;;;;;10.98;6.25;;;24.50;94.60;;;;;;4996333;28;20362;-73
2022/05/24 08:20:26;;;;;;;9.52;6.10;;;24.70;94.40;;;;;;5005600;28;20037;-76
2022/05/24 08:22:52;;;;;;;10.13;5.68;;;24.90;93.50;;;;;;5005351;28;20383;-76
2022/05/24 08:25:18;;;;;;;8.02;5.15;;;24.70;93.80;;;;;;5005660;28;20037;-79
2022/05/24 08:27:44;;;;;;;12.63;6.43;;;24.60;93.90;;;;;;5002925;28;20034;-77
2022/05/24 08:30:13;;;;;;;10.60;5.63;;;24.80;94.00;;;;;;5005089;28;20069;-77
2022/05/24 08:32:39;;;;;;;9.27;5.25;;;24.80;93.50;;;;;;4999034;28;20030;-76
2022/05/24 08:35:06;;;;;;;11.45;5.75;;;24.70;93.70;;;;;;4990648;28;20049;-78
2022/05/24 08:37:32;;;;;;;11.60;5.43;;;25.20;93.30;;;;;;4986367;28;20033;-77
2022/05/24 08:39:59;;;;;;;8.00;5.20;;;25.40;93.20;;;;;;5003296;28;20042;-77
2022/05/24 08:42:36;;;;;;;8.13;5.25;;;25.10;92.70;;;;;;5004334;28;20115;-75
2022/05/24 08:50:57;;;;;;;8.35;4.70;;;25.60;92.10;;;;;;5000056;28;20072;-75
2022/05/24 08:53:39;;;;;;;11.23;4.72;;;25.40;92.20;;;;;;5005321;28;20042;-75
2022/05/24 08:56:08;;;;;;;8.95;4.78;;;25.70;92.00;;;;;;5002800;28;20053;-72
2022/05/24 08:58:38;;;;;;;11.35;3.63;;;25.90;92.80;;;;;;5005240;28;20092;-74
2022/05/24 09:01:28;;;;;;;11.90;3.75;;;25.70;90.40;;;;;;5005376;28;20061;-73
2022/05/24 09:03:54;;;;;;;7.93;2.95;;;25.80;89.80;;;;;;5004812;28;20539;-74
2022/05/24 09:06:51;;;;;;;5.13;2.35;;;26.20;87.50;;;;;;5003347;28;20602;-74
2022/05/24 09:09:20;;;;;;;7.70;2.60;;;26.40;85.40;;;;;;5005162;28;20415;-74
2022/05/24 09:12:13;;;;;;;9.80;2.95;;;26.50;86.30;;;;;;5004206;28;20809;-73
2022/05/24 09:14:47;;;;;;;4.45;2.28;;;26.30;84.80;;;;;;4984396;28;20129;-73
2022/05/24 09:17:36;;;;;;;6.97;2.40;;;26.10;84.60;;;;;;4980451;28;20105;-73
2022/05/24 09:20:11;;;;;;;5.75;2.58;;;26.30;84.10;;;;;;4982087;28;20041;-74
2022/05/24 09:22:37;;;;;;;7.43;2.63;;;26.60;84.00;;;;;;4997943;28;20042;-73
2022/05/24 09:25:04;;;;;;;6.93;2.70;;;26.80;83.80;;;;;;4995828;28;20040;-73
2022/05/24 09:27:49;;;;;;;7.85;2.40;;;27.00;84.20;;;;;;5002975;28;20042;-73
2022/05/24 09:30:29;;;;;;;7.63;2.75;;;27.30;84.10;;;;;;5001852;28;20049;-74
2022/05/24 09:33:25;;;;;;;7.28;2.80;;;27.20;83.60;;;;;;5004628;28;20030;-74
2022/05/24 09:36:00;;;;;;;6.63;2.40;;;27.20;83.10;;;;;;5005222;28;20488;-74
2022/05/24 09:38:39;;;;;;;6.43;2.30;;;27.20;83.40;;;;;;5004362;28;20030;-73
2022/05/24 09:41:15;;;;;;;12.07;4.10;;;27.40;83.80;;;;;;4996784;28;20030;-73
2022/05/24 09:43:41;;;;;;;10.88;3.25;;;27.40;83.30;;;;;;5003545;28;20045;-74
2022/05/24 09:46:09;;;;;;;5.55;2.33;;;27.50;83.20;;;;;;4997326;28;20026;-74
2022/05/24 09:48:49;;;;;;;13.13;2.72;;;27.80;83.40;;;;;;4998993;28;20041;-74
2022/05/24 09:51:43;;;;;;;11.63;2.50;;;27.70;83.30;;;;;;5003307;28;20053;-74
2022/05/24 09:54:21;;;;;;;6.47;2.72;;;27.60;83.30;;;;;;5004456;28;20069;-74
2022/05/24 09:57:11;;;;;;;10.40;3.38;;;27.80;84.50;;;;;;5000607;28;20034;-74
2022/05/24 09:59:56;;;;;;;9.27;3.00;;;27.70;84.60;;;;;;4982486;28;20369;-74
2022/05/24 10:02:25;;;;;;;9.77;3.28;;;28.10;83.20;;;;;;4985350;28;20604;-74
2022/05/24 10:04:51;;;;;;;7.43;3.50;;;28.10;84.10;;;;;;4994622;28;20046;-74
2022/05/24 10:07:29;;;;;;;6.70;2.58;;;28.00;82.40;;;;;;5008472;28;20084;-74
2022/05/24 10:10:14;;;;;;;5.80;2.80;;;28.20;83.80;;;;;;5008167;28;20491;-74
2022/05/24 10:12:43;;;;;;;9.65;3.67;;;28.40;82.40;;;;;;5006998;28;20041;-74
2022/05/24 10:15:23;;;;;;;8.75;3.28;;;28.20;82.80;;;;;;5019650;28;20026;-74
2022/05/24 10:17:52;;;;;;;7.10;3.10;;;28.20;82.70;;;;;;5004830;28;20072;-74
2022/05/24 10:20:35;;;;;;;8.10;3.67;;;28.20;83.80;;;;;;5007797;28;20200;-74
2022/05/24 10:23:16;;;;;;;8.90;3.40;;;28.50;83.80;;;;;;5007966;28;20034;-74
2022/05/24 10:25:41;;;;;;;11.23;3.40;;;28.40;85.10;;;;;;5007539;28;20038;-74
2022/05/24 10:28:21;;;;;;;8.27;2.72;;;28.70;82.70;;;;;;5008511;28;20041;-74
2022/05/24 10:31:18;;;;;;;8.55;3.55;;;28.70;82.70;;;;;;5027442;28;20120;-74
2022/05/24 10:40:31;;;;;;;7.35;3.13;;;28.60;82.70;;;;;;5006605;28;20056;-74
2022/05/24 10:43:18;;;;;;;6.85;3.17;;;28.40;82.80;;;;;;5005180;28;20096;-74
2022/05/24 10:45:51;;;;;;;11.40;3.28;;;28.50;83.10;;;;;;4992329;28;20029;-74
2022/05/24 10:48:24;;;;;;;;;;;28.70;83.10;;;;;;5006213;28;20048;-73
2022/05/24 10:51:02;;;;;;;9.38;3.25;;;28.60;83.20;;;;;;5001116;28;19909;-74
2022/05/24 10:53:47;;;;;;;6.85;3.40;;;28.50;83.60;;;;;;5005271;28;20025;-74
2022/05/24 10:56:55;;;;;;;7.68;2.75;;;28.60;83.40;;;;;;5006933;28;20033;-74
2022/05/24 10:59:36;;;;;;;5.72;3.33;;;28.40;82.60;;;;;;4988011;28;20117;-74
2022/05/24 11:02:25;;;;;;;7.45;2.85;;;28.20;82.90;;;;;;5000541;28;20057;-74
2022/05/24 11:04:56;;;;;;;6.72;3.50;;;28.20;83.00;;;;;;4994805;28;20129;-74
2022/05/24 11:07:23;;;;;;;7.95;2.88;;;28.30;82.10;;;;;;4997297;28;20031;-74
2022/05/24 11:10:12;;;;;;;6.63;2.90;;;28.50;84.00;;;;;;5003897;28;20042;-74
2022/05/24 11:12:44;;;;;;;9.48;3.00;;;28.60;82.70;;;;;;5005787;28;20029;-74
2022/05/24 11:15:20;;;;;;;8.40;3.85;;;28.20;82.80;;;;;;5006811;28;20411;-74
2022/05/24 11:17:46;;;;;;;11.32;3.33;;;28.70;82.40;;;;;;5007041;28;20054;-74
2022/05/24 11:20:13;;;;;;;9.43;2.90;;;28.40;81.60;;;;;;5006923;28;20075;-74
2022/05/24 11:22:58;;;;;;;8.70;3.08;;;28.60;82.00;;;;;;5004470;28;20026;-74
2022/05/24 11:25:44;;;;;;;9.35;3.10;;;28.90;82.90;;;;;;5003522;28;20104;-74
2022/05/24 11:28:23;;;;;;;8.23;3.65;;;28.60;81.50;;;;;;5006674;28;20049;-74
2022/05/24 11:30:49;;;;;;;9.15;2.90;;;29.00;82.50;;;;;;5005124;28;20034;-73
2022/05/24 11:33:27;;;;;;;10.50;3.20;;;29.20;80.80;;;;;;5006679;28;20034;-73
2022/05/24 11:35:53;;;;;;;6.00;3.10;;;28.90;81.40;;;;;;5007717;28;20057;-74
2022/05/24 11:38:22;;;;;;;7.28;2.95;;;29.10;82.10;;;;;;5006126;28;20025;-73
2022/05/24 11:41:02;;;;;;;7.57;3.17;;;29.30;82.20;;;;;;5002061;28;20064;-73
2022/05/24 11:43:43;;;;;;;7.78;3.17;;;28.80;81.70;;;;;;5005872;28;20113;-73
2022/05/24 11:46:10;;;;;;;8.82;3.45;;;28.80;81.00;;;;;;5000775;28;20030;-76
2022/05/24 11:48:50;;;;;;;8.48;3.63;;;28.50;82.00;;;;;;5018846;28;20032;-77
2022/05/24 11:51:44;;;;;;;5.32;2.78;;;28.80;82.30;;;;;;5005464;28;20062;-77
2022/05/24 11:54:19;;;;;;;8.75;3.20;;;28.90;81.60;;;;;;5003977;28;20032;-77
2022/05/24 11:57:14;;;;;;;5.72;2.90;;;28.70;81.40;;;;;;5004471;28;20029;-77
2022/05/24 11:59:40;;;;;;;10.30;3.78;;;28.70;81.20;;;;;;4997609;28;20045;-77
2022/05/24 12:02:31;;;;;;;7.82;3.25;;;28.60;80.70;;;;;;5003713;28;20042;-77
2022/05/24 12:08:22;;;;;;;9.90;3.53;;;29.30;82.90;;;;;;4997455;28;20069;-76
2022/05/24 12:11:06;;;;;;;11.15;3.83;;;29.20;80.20;;;;;;5001876;28;20045;-77
2022/05/24 12:13:55;;;;;;;6.50;3.10;;;28.90;81.80;;;;;;5006061;28;20091;-76
2022/05/24 12:16:39;;;;;;;10.95;3.85;;;28.70;81.40;;;;;;5001955;28;20065;-77
2022/05/24 12:19:09;;;;;;;9.77;3.10;;;28.90;82.50;;;;;;5005769;28;20104;-77
2022/05/24 12:21:50;;;;;;;11.18;3.28;;;29.00;81.10;;;;;;5004266;28;20033;-77
2022/05/24 12:24:30;;;;;;;9.77;4.05;;;28.70;83.10;;;;;;4979998;28;20109;-77
2022/05/24 12:27:33;;;;;;;8.20;3.70;;;28.90;82.30;;;;;;4985907;28;20045;-77
2022/05/24 12:30:29;;;;;;;7.90;3.22;;;29.20;81.20;;;;;;4984497;28;20037;-77
2022/05/24 12:33:04;;;;;;;10.38;3.28;;;28.80;81.20;;;;;;5003678;28;20634;-77
2022/05/24 12:35:32;;;;;;;28.08;3.80;;;28.70;80.90;;;;;;5005653;28;20399;-77
2022/05/24 12:37:58;;;;;;;10.20;3.60;;;28.60;81.30;;;;;;4993300;28;20412;-77
2022/05/24 12:40:25;;;;;;;9.73;3.42;;;28.70;81.30;;;;;;5004099;28;20030;-77
2022/05/24 12:42:54;;;;;;;7.13;3.40;;;29.20;81.50;;;;;;5004634;28;20079;-77
2022/05/24 12:45:33;;;;;;;10.27;4.00;;;29.40;81.20;;;;;;5004589;28;20962;-77
2022/05/24 12:47:59;;;;;;;8.90;3.78;;;29.20;80.60;;;;;;5003134;28;20419;-77
2022/05/24 12:50:35;;;;;;;7.50;2.72;;;29.40;80.30;;;;;;5001125;28;20045;-77
2022/05/24 12:53:09;;;;;;;6.25;3.35;;;29.30;80.20;;;;;;5001166;28;20065;-77
2022/05/24 12:55:55;;;;;;;12.77;4.03;;;29.50;80.80;;;;;;5005394;28;20069;-77
2022/05/24 12:58:45;;;;;;;7.30;2.95;;;29.60;79.90;;;;;;5003833;28;20041;-77
2022/05/24 13:01:18;;;;;;;9.90;3.67;;;30.00;80.40;;;;;;5000268;28;20060;-77
2022/05/24 13:04:15;;;;;;;9.55;3.25;;;29.60;80.40;;;;;;4993935;28;20069;-77
2022/05/24 13:06:43;;;;;;;8.63;3.50;;;29.10;79.50;;;;;;4987578;28;20537;-77
2022/05/24 13:09:28;;;;;;;12.70;3.55;;;28.90;79.50;;;;;;5000545;28;20049;-78
2022/05/24 13:11:59;;;;;;;7.80;3.22;;;28.90;80.20;;;;;;5003478;28;20400;-77
2022/05/24 13:14:58;;;;;;;10.15;3.35;;;29.10;80.40;;;;;;5005567;28;20029;-78
2022/05/24 13:17:26;;;;;;;7.65;3.45;;;29.30;79.40;;;;;;4998892;28;20026;-77
2022/05/24 13:20:09;;;;;;;13.18;3.60;;;29.10;79.90;;;;;;5004779;28;20439;-78
2022/05/24 13:22:47;;;;;;;15.38;3.75;;;28.80;80.40;;;;;;4997152;28;20027;-77
2022/05/24 13:25:26;;;;;;;7.60;3.13;;;28.70;80.40;;;;;;5004879;28;20473;-77
2022/05/24 13:27:58;;;;;;;13.32;3.50;;;29.10;79.60;;;;;;5002155;28;20052;-77
2022/05/24 13:33:35;;;;;;;11.77;4.00;;;29.50;79.40;;;;;;4983883;28;20108;-77
2022/05/24 13:36:20;;;;;;;12.63;3.70;;;29.80;79.60;;;;;;4990058;28;20057;-77
2022/05/24 13:38:50;;;;;;;6.30;2.85;;;29.70;79.80;;;;;;4986401;28;20045;-77
2022/05/24 13:41:30;;;;;;;11.23;3.97;;;29.40;79.90;;;;;;5005293;28;20026;-77
2022/05/24 13:44:18;;;;;;;12.18;3.70;;;29.50;79.00;;;;;;5011111;28;20053;-77
2022/05/24 13:47:21;;;;;;;9.52;3.75;;;29.80;79.20;;;;;;5010928;28;20075;-77
2022/05/24 13:49:48;;;;;;;8.77;3.45;;;29.40;78.90;;;;;;5002086;28;20046;-77